sensor_id;sensor_type;location;lat;lon;timestamp;P1;durP1;ratioP1;P2;durP2;ratioP2
10659;SDS011;5378;53.206;13.316;2024-02-23T00:01:45;0.90;;;0.50;;
10659;SDS011;5378;53.206;13.316;2024-02-23T00:04:33;1.30;;;0.63;;
10659;SDS011;5378;53.206;13.316;2024-02-23T00:07:20;1.93;;;0.90;;
10659;SDS011;5378;53.206;13.316;2024-02-23T00:10:07;1.10;;;0.90;;
10659;SDS011;5378;53.206;13.316;2024-02-23T00:12:55;1.37;;;0.50;;
10659;SDS011;5378;53.206;13.316;2024-02-23T00:15:43;0.93;;;0.80;;
10659;SDS011;5378;53.206;13.316;2024-02-23T00:18:30;1.93;;;0.60;;
10659;SDS011;5378;53.206;13.316;2024-02-23T00:21:17;1.73;;;1.10;;
10659;SDS011;5378;53.206;13.316;2024-02-23T00:24:04;1.50;;;0.90;;
10659;SDS011;5378;53.206;13.316;2024-02-23T00:26:52;0.90;;;0.67;;
10659;SDS011;5378;53.206;13.316;2024-02-23T00:29:39;2.30;;;1.27;;
10659;SDS011;5378;53.206;13.316;2024-02-23T00:32:27;1.43;;;0.60;;
10659;SDS011;5378;53.206;13.316;2024-02-23T00:35:14;1.00;;;0.73;;
10659;SDS011;5378;53.206;13.316;2024-02-23T00:38:02;1.00;;;0.70;;
10659;SDS011;5378;53.206;13.316;2024-02-23T00:40:49;1.10;;;0.80;;
10659;SDS011;5378;53.206;13.316;2024-02-23T00:43:39;0.80;;;0.53;;
10659;SDS011;5378;53.206;13.316;2024-02-23T00:46:26;0.80;;;0.53;;
10659;SDS011;5378;53.206;13.316;2024-02-23T00:49:15;0.90;;;0.70;;
10659;SDS011;5378;53.206;13.316;2024-02-23T00:52:02;1.00;;;0.70;;
10659;SDS011;5378;53.206;13.316;2024-02-23T00:54:49;6.63;;;0.90;;
10659;SDS011;5378;53.206;13.316;2024-02-23T00:57:37;1.90;;;0.90;;
10659;SDS011;5378;53.206;13.316;2024-02-23T01:00:24;1.00;;;0.80;;
10659;SDS011;5378;53.206;13.316;2024-02-23T01:03:11;9.97;;;0.90;;
10659;SDS011;5378;53.206;13.316;2024-02-23T01:06:00;1.23;;;0.53;;
10659;SDS011;5378;53.206;13.316;2024-02-23T01:08:47;0.80;;;0.60;;
10659;SDS011;5378;53.206;13.316;2024-02-23T01:11:33;3.27;;;1.03;;
10659;SDS011;5378;53.206;13.316;2024-02-23T01:14:21;1.97;;;0.70;;
10659;SDS011;5378;53.206;13.316;2024-02-23T01:17:08;3.33;;;0.87;;
10659;SDS011;5378;53.206;13.316;2024-02-23T01:19:56;5.33;;;1.30;;
10659;SDS011;5378;53.206;13.316;2024-02-23T01:22:44;1.47;;;0.77;;
10659;SDS011;5378;53.206;13.316;2024-02-23T01:25:31;1.10;;;0.80;;
10659;SDS011;5378;53.206;13.316;2024-02-23T01:28:20;0.97;;;0.63;;
10659;SDS011;5378;53.206;13.316;2024-02-23T01:31:08;5.20;;;0.83;;
10659;SDS011;5378;53.206;13.316;2024-02-23T01:33:56;4.00;;;1.00;;
10659;SDS011;5378;53.206;13.316;2024-02-23T01:36:43;1.17;;;0.77;;
10659;SDS011;5378;53.206;13.316;2024-02-23T01:39:31;1.10;;;0.80;;
10659;SDS011;5378;53.206;13.316;2024-02-23T01:42:19;1.73;;;0.80;;
10659;SDS011;5378;53.206;13.316;2024-02-23T01:45:06;1.20;;;0.93;;
10659;SDS011;5378;53.206;13.316;2024-02-23T01:47:54;2.00;;;0.60;;
10659;SDS011;5378;53.206;13.316;2024-02-23T01:50:41;7.03;;;0.70;;
10659;SDS011;5378;53.206;13.316;2024-02-23T01:53:30;3.80;;;1.13;;
10659;SDS011;5378;53.206;13.316;2024-02-23T01:56:19;2.83;;;0.50;;
10659;SDS011;5378;53.206;13.316;2024-02-23T01:59:07;0.90;;;0.80;;
10659;SDS011;5378;53.206;13.316;2024-02-23T02:01:57;1.90;;;0.50;;
10659;SDS011;5378;53.206;13.316;2024-02-23T02:04:44;0.57;;;0.30;;
10659;SDS011;5378;53.206;13.316;2024-02-23T02:07:31;4.50;;;0.60;;
10659;SDS011;5378;53.206;13.316;2024-02-23T02:10:18;3.50;;;0.60;;
10659;SDS011;5378;53.206;13.316;2024-02-23T02:13:07;1.43;;;0.50;;
10659;SDS011;5378;53.206;13.316;2024-02-23T02:15:55;0.80;;;0.33;;
10659;SDS011;5378;53.206;13.316;2024-02-23T02:18:43;1.10;;;0.50;;
10659;SDS011;5378;53.206;13.316;2024-02-23T02:21:31;2.20;;;0.53;;
10659;SDS011;5378;53.206;13.316;2024-02-23T02:24:19;0.80;;;0.50;;
10659;SDS011;5378;53.206;13.316;2024-02-23T02:27:06;1.23;;;0.50;;
10659;SDS011;5378;53.206;13.316;2024-02-23T02:29:55;1.07;;;0.37;;
10659;SDS011;5378;53.206;13.316;2024-02-23T02:32:43;1.00;;;0.40;;
10659;SDS011;5378;53.206;13.316;2024-02-23T02:35:30;1.73;;;0.40;;
10659;SDS011;5378;53.206;13.316;2024-02-23T02:38:17;1.67;;;0.50;;
10659;SDS011;5378;53.206;13.316;2024-02-23T02:41:05;1.40;;;0.53;;
10659;SDS011;5378;53.206;13.316;2024-02-23T02:43:52;1.37;;;0.57;;
10659;SDS011;5378;53.206;13.316;2024-02-23T02:46:41;1.17;;;0.53;;
10659;SDS011;5378;53.206;13.316;2024-02-23T02:49:28;3.33;;;0.70;;
10659;SDS011;5378;53.206;13.316;2024-02-23T02:52:15;4.57;;;0.40;;
10659;SDS011;5378;53.206;13.316;2024-02-23T02:55:03;0.90;;;0.50;;
10659;SDS011;5378;53.206;13.316;2024-02-23T02:57:51;3.13;;;0.70;;
10659;SDS011;5378;53.206;13.316;2024-02-23T03:00:38;3.23;;;0.63;;
10659;SDS011;5378;53.206;13.316;2024-02-23T03:03:27;2.77;;;0.43;;
10659;SDS011;5378;53.206;13.316;2024-02-23T03:06:14;1.77;;;0.60;;
10659;SDS011;5378;53.206;13.316;2024-02-23T03:09:01;0.80;;;0.50;;
10659;SDS011;5378;53.206;13.316;2024-02-23T03:11:49;1.97;;;0.60;;
10659;SDS011;5378;53.206;13.316;2024-02-23T03:14:37;6.23;;;0.73;;
10659;SDS011;5378;53.206;13.316;2024-02-23T03:17:25;2.40;;;0.63;;
10659;SDS011;5378;53.206;13.316;2024-02-23T03:20:15;1.07;;;0.30;;
10659;SDS011;5378;53.206;13.316;2024-02-23T03:23:02;3.37;;;0.67;;
10659;SDS011;5378;53.206;13.316;2024-02-23T03:25:50;3.30;;;0.50;;
10659;SDS011;5378;53.206;13.316;2024-02-23T03:28:37;3.27;;;0.87;;
10659;SDS011;5378;53.206;13.316;2024-02-23T03:31:24;1.30;;;0.43;;
10659;SDS011;5378;53.206;13.316;2024-02-23T03:34:12;1.90;;;0.83;;
10659;SDS011;5378;53.206;13.316;2024-02-23T03:37:00;2.30;;;0.53;;
10659;SDS011;5378;53.206;13.316;2024-02-23T03:39:48;5.17;;;0.83;;
10659;SDS011;5378;53.206;13.316;2024-02-23T03:42:35;0.90;;;0.60;;
10659;SDS011;5378;53.206;13.316;2024-02-23T03:45:23;1.80;;;0.70;;
10659;SDS011;5378;53.206;13.316;2024-02-23T03:48:09;0.87;;;0.40;;
10659;SDS011;5378;53.206;13.316;2024-02-23T03:50:56;8.63;;;0.83;;
10659;SDS011;5378;53.206;13.316;2024-02-23T03:53:45;5.40;;;0.83;;
10659;SDS011;5378;53.206;13.316;2024-02-23T03:56:37;0.60;;;0.30;;
10659;SDS011;5378;53.206;13.316;2024-02-23T03:59:25;0.83;;;0.50;;
10659;SDS011;5378;53.206;13.316;2024-02-23T04:02:12;0.50;;;0.20;;
10659;SDS011;5378;53.206;13.316;2024-02-23T04:04:59;1.10;;;0.60;;
10659;SDS011;5378;53.206;13.316;2024-02-23T04:07:47;0.80;;;0.33;;
10659;SDS011;5378;53.206;13.316;2024-02-23T04:10:35;1.67;;;0.43;;
10659;SDS011;5378;53.206;13.316;2024-02-23T04:13:23;5.47;;;0.63;;
10659;SDS011;5378;53.206;13.316;2024-02-23T04:16:10;1.03;;;0.60;;
10659;SDS011;5378;53.206;13.316;2024-02-23T04:18:56;1.43;;;0.27;;
10659;SDS011;5378;53.206;13.316;2024-02-23T04:21:45;2.00;;;0.40;;
10659;SDS011;5378;53.206;13.316;2024-02-23T04:24:32;2.40;;;0.47;;
10659;SDS011;5378;53.206;13.316;2024-02-23T04:27:20;3.47;;;0.50;;
10659;SDS011;5378;53.206;13.316;2024-02-23T04:30:08;2.40;;;0.30;;
10659;SDS011;5378;53.206;13.316;2024-02-23T04:32:56;0.60;;;0.30;;
10659;SDS011;5378;53.206;13.316;2024-02-23T04:35:43;7.50;;;0.40;;
10659;SDS011;5378;53.206;13.316;2024-02-23T04:38:30;6.83;;;0.80;;
10659;SDS011;5378;53.206;13.316;2024-02-23T04:41:19;2.70;;;0.23;;
10659;SDS011;5378;53.206;13.316;2024-02-23T04:44:08;0.80;;;0.30;;
10659;SDS011;5378;53.206;13.316;2024-02-23T04:46:55;0.60;;;0.27;;
10659;SDS011;5378;53.206;13.316;2024-02-23T04:49:43;0.90;;;0.30;;
10659;SDS011;5378;53.206;13.316;2024-02-23T04:52:30;0.97;;;0.40;;
10659;SDS011;5378;53.206;13.316;2024-02-23T04:55:17;0.50;;;0.23;;
10659;SDS011;5378;53.206;13.316;2024-02-23T04:58:04;0.60;;;0.30;;
10659;SDS011;5378;53.206;13.316;2024-02-23T05:00:54;0.60;;;0.30;;
10659;SDS011;5378;53.206;13.316;2024-02-23T05:03:41;0.93;;;0.33;;
10659;SDS011;5378;53.206;13.316;2024-02-23T05:06:28;0.50;;;0.30;;
10659;SDS011;5378;53.206;13.316;2024-02-23T05:09:15;1.63;;;0.40;;
10659;SDS011;5378;53.206;13.316;2024-02-23T05:12:02;0.60;;;0.37;;
10659;SDS011;5378;53.206;13.316;2024-02-23T05:14:49;0.80;;;0.30;;
10659;SDS011;5378;53.206;13.316;2024-02-23T05:17:38;0.80;;;0.30;;
10659;SDS011;5378;53.206;13.316;2024-02-23T05:20:25;0.60;;;0.30;;
10659;SDS011;5378;53.206;13.316;2024-02-23T05:23:12;0.60;;;0.30;;
10659;SDS011;5378;53.206;13.316;2024-02-23T05:26:01;0.60;;;0.33;;
10659;SDS011;5378;53.206;13.316;2024-02-23T05:28:50;0.50;;;0.20;;
10659;SDS011;5378;53.206;13.316;2024-02-23T05:31:44;0.50;;;0.20;;
10659;SDS011;5378;53.206;13.316;2024-02-23T05:34:34;0.70;;;0.30;;
10659;SDS011;5378;53.206;13.316;2024-02-23T05:37:21;1.17;;;0.30;;
10659;SDS011;5378;53.206;13.316;2024-02-23T05:40:10;0.57;;;0.23;;
10659;SDS011;5378;53.206;13.316;2024-02-23T05:42:57;0.50;;;0.20;;
10659;SDS011;5378;53.206;13.316;2024-02-23T05:45:45;0.60;;;0.37;;
10659;SDS011;5378;53.206;13.316;2024-02-23T05:48:32;0.50;;;0.20;;
10659;SDS011;5378;53.206;13.316;2024-02-23T05:51:20;0.63;;;0.40;;
10659;SDS011;5378;53.206;13.316;2024-02-23T05:54:08;0.60;;;0.30;;
10659;SDS011;5378;53.206;13.316;2024-02-23T05:56:55;0.60;;;0.30;;
10659;SDS011;5378;53.206;13.316;2024-02-23T05:59:42;1.00;;;0.40;;
10659;SDS011;5378;53.206;13.316;2024-02-23T06:02:28;0.50;;;0.20;;
10659;SDS011;5378;53.206;13.316;2024-02-23T06:05:15;0.60;;;0.30;;
10659;SDS011;5378;53.206;13.316;2024-02-23T06:08:04;0.50;;;0.20;;
10659;SDS011;5378;53.206;13.316;2024-02-23T06:10:52;0.97;;;0.30;;
10659;SDS011;5378;53.206;13.316;2024-02-23T06:13:40;1.83;;;0.50;;
10659;SDS011;5378;53.206;13.316;2024-02-23T06:16:28;0.60;;;0.33;;
10659;SDS011;5378;53.206;13.316;2024-02-23T06:19:15;0.60;;;0.20;;
10659;SDS011;5378;53.206;13.316;2024-02-23T06:22:02;2.53;;;0.27;;
10659;SDS011;5378;53.206;13.316;2024-02-23T06:24:51;0.87;;;0.30;;
10659;SDS011;5378;53.206;13.316;2024-02-23T06:27:38;0.50;;;0.10;;
10659;SDS011;5378;53.206;13.316;2024-02-23T06:30:26;0.50;;;0.30;;
10659;SDS011;5378;53.206;13.316;2024-02-23T06:33:13;0.80;;;0.30;;
10659;SDS011;5378;53.206;13.316;2024-02-23T06:36:00;0.50;;;0.20;;
10659;SDS011;5378;53.206;13.316;2024-02-23T06:38:48;4.20;;;0.40;;
10659;SDS011;5378;53.206;13.316;2024-02-23T06:41:38;0.60;;;0.30;;
10659;SDS011;5378;53.206;13.316;2024-02-23T06:44:25;6.10;;;0.33;;
10659;SDS011;5378;53.206;13.316;2024-02-23T06:47:12;0.70;;;0.37;;
10659;SDS011;5378;53.206;13.316;2024-02-23T06:50:00;7.20;;;2.23;;
10659;SDS011;5378;53.206;13.316;2024-02-23T06:52:47;3.40;;;1.40;;
10659;SDS011;5378;53.206;13.316;2024-02-23T06:55:35;1.17;;;0.63;;
10659;SDS011;5378;53.206;13.316;2024-02-23T06:58:23;1.37;;;0.40;;
10659;SDS011;5378;53.206;13.316;2024-02-23T07:01:11;0.60;;;0.30;;
10659;SDS011;5378;53.206;13.316;2024-02-23T07:03:58;0.50;;;0.20;;
10659;SDS011;5378;53.206;13.316;2024-02-23T07:06:45;1.43;;;0.40;;
10659;SDS011;5378;53.206;13.316;2024-02-23T07:09:32;1.30;;;0.40;;
10659;SDS011;5378;53.206;13.316;2024-02-23T07:12:19;0.60;;;0.40;;
10659;SDS011;5378;53.206;13.316;2024-02-23T07:15:08;0.53;;;0.27;;
10659;SDS011;5378;53.206;13.316;2024-02-23T07:17:55;1.37;;;1.07;;
10659;SDS011;5378;53.206;13.316;2024-02-23T07:20:44;3.83;;;0.60;;
10659;SDS011;5378;53.206;13.316;2024-02-23T07:23:31;1.77;;;0.43;;
10659;SDS011;5378;53.206;13.316;2024-02-23T07:26:18;0.80;;;0.60;;
10659;SDS011;5378;53.206;13.316;2024-02-23T07:29:07;1.77;;;0.60;;
10659;SDS011;5378;53.206;13.316;2024-02-23T07:31:57;1.50;;;0.70;;
10659;SDS011;5378;53.206;13.316;2024-02-23T07:34:43;2.07;;;0.63;;
10659;SDS011;5378;53.206;13.316;2024-02-23T07:37:31;2.27;;;0.60;;
10659;SDS011;5378;53.206;13.316;2024-02-23T07:40:18;2.83;;;0.60;;
10659;SDS011;5378;53.206;13.316;2024-02-23T07:43:05;0.60;;;0.30;;
10659;SDS011;5378;53.206;13.316;2024-02-23T07:45:52;1.07;;;0.40;;
10659;SDS011;5378;53.206;13.316;2024-02-23T07:48:40;0.70;;;0.23;;
10659;SDS011;5378;53.206;13.316;2024-02-23T07:51:27;6.53;;;0.83;;
10659;SDS011;5378;53.206;13.316;2024-02-23T07:54:15;0.97;;;0.63;;
10659;SDS011;5378;53.206;13.316;2024-02-23T07:57:03;0.80;;;0.40;;
10659;SDS011;5378;53.206;13.316;2024-02-23T07:59:50;0.83;;;0.30;;
10659;SDS011;5378;53.206;13.316;2024-02-23T08:02:37;3.07;;;0.53;;
10659;SDS011;5378;53.206;13.316;2024-02-23T08:05:26;3.03;;;0.50;;
10659;SDS011;5378;53.206;13.316;2024-02-23T08:08:13;2.33;;;1.10;;
10659;SDS011;5378;53.206;13.316;2024-02-23T08:11:01;1.77;;;0.70;;
10659;SDS011;5378;53.206;13.316;2024-02-23T08:13:49;1.73;;;0.80;;
10659;SDS011;5378;53.206;13.316;2024-02-23T08:16:36;1.20;;;0.50;;
10659;SDS011;5378;53.206;13.316;2024-02-23T08:19:23;0.63;;;0.40;;
10659;SDS011;5378;53.206;13.316;2024-02-23T08:22:11;0.70;;;0.40;;
10659;SDS011;5378;53.206;13.316;2024-02-23T08:24:58;1.00;;;0.60;;
10659;SDS011;5378;53.206;13.316;2024-02-23T08:27:45;4.13;;;0.50;;
10659;SDS011;5378;53.206;13.316;2024-02-23T08:30:34;0.70;;;0.40;;
10659;SDS011;5378;53.206;13.316;2024-02-23T08:33:21;3.03;;;0.40;;
10659;SDS011;5378;53.206;13.316;2024-02-23T08:36:09;0.60;;;0.30;;
10659;SDS011;5378;53.206;13.316;2024-02-23T08:38:58;1.23;;;0.30;;
10659;SDS011;5378;53.206;13.316;2024-02-23T08:41:45;1.03;;;0.37;;
10659;SDS011;5378;53.206;13.316;2024-02-23T08:44:32;0.90;;;0.50;;
10659;SDS011;5378;53.206;13.316;2024-02-23T08:47:19;1.17;;;0.70;;
10659;SDS011;5378;53.206;13.316;2024-02-23T08:50:06;2.93;;;0.90;;
10659;SDS011;5378;53.206;13.316;2024-02-23T08:52:54;0.97;;;0.50;;
10659;SDS011;5378;53.206;13.316;2024-02-23T08:55:43;0.70;;;0.50;;
10659;SDS011;5378;53.206;13.316;2024-02-23T08:58:31;1.83;;;0.40;;
10659;SDS011;5378;53.206;13.316;2024-02-23T09:01:18;1.70;;;0.80;;
10659;SDS011;5378;53.206;13.316;2024-02-23T09:04:05;0.80;;;0.40;;
10659;SDS011;5378;53.206;13.316;2024-02-23T09:06:52;2.30;;;1.07;;
10659;SDS011;5378;53.206;13.316;2024-02-23T09:09:39;1.97;;;0.50;;
10659;SDS011;5378;53.206;13.316;2024-02-23T09:12:28;2.20;;;0.80;;
10659;SDS011;5378;53.206;13.316;2024-02-23T09:15:15;2.50;;;0.60;;
10659;SDS011;5378;53.206;13.316;2024-02-23T09:18:02;1.47;;;0.47;;
10659;SDS011;5378;53.206;13.316;2024-02-23T09:20:50;4.40;;;0.57;;
10659;SDS011;5378;53.206;13.316;2024-02-23T09:23:37;0.80;;;0.50;;
10659;SDS011;5378;53.206;13.316;2024-02-23T09:26:24;3.00;;;0.50;;
10659;SDS011;5378;53.206;13.316;2024-02-23T09:29:13;0.50;;;0.30;;
10659;SDS011;5378;53.206;13.316;2024-02-23T09:32:00;1.60;;;0.83;;
10659;SDS011;5378;53.206;13.316;2024-02-23T09:34:48;0.90;;;0.60;;
10659;SDS011;5378;53.206;13.316;2024-02-23T09:37:35;3.70;;;0.97;;
10659;SDS011;5378;53.206;13.316;2024-02-23T09:40:22;0.80;;;0.60;;
10659;SDS011;5378;53.206;13.316;2024-02-23T09:43:09;1.20;;;0.70;;
10659;SDS011;5378;53.206;13.316;2024-02-23T09:45:59;3.43;;;0.70;;
10659;SDS011;5378;53.206;13.316;2024-02-23T09:48:47;1.17;;;0.40;;
10659;SDS011;5378;53.206;13.316;2024-02-23T09:51:35;1.93;;;0.60;;
10659;SDS011;5378;53.206;13.316;2024-02-23T09:54:23;1.00;;;0.70;;
10659;SDS011;5378;53.206;13.316;2024-02-23T09:57:10;2.10;;;0.50;;
10659;SDS011;5378;53.206;13.316;2024-02-23T09:59:57;1.77;;;0.60;;
10659;SDS011;5378;53.206;13.316;2024-02-23T10:02:46;1.50;;;0.50;;
10659;SDS011;5378;53.206;13.316;2024-02-23T10:05:34;0.60;;;0.30;;
10659;SDS011;5378;53.206;13.316;2024-02-23T10:08:22;0.60;;;0.40;;
10659;SDS011;5378;53.206;13.316;2024-02-23T10:11:09;0.50;;;0.30;;
10659;SDS011;5378;53.206;13.316;2024-02-23T10:13:58;1.83;;;0.60;;
10659;SDS011;5378;53.206;13.316;2024-02-23T10:16:45;0.80;;;0.50;;
10659;SDS011;5378;53.206;13.316;2024-02-23T10:19:34;0.80;;;0.70;;
10659;SDS011;5378;53.206;13.316;2024-02-23T10:22:21;1.00;;;0.37;;
10659;SDS011;5378;53.206;13.316;2024-02-23T10:25:10;2.00;;;0.40;;
10659;SDS011;5378;53.206;13.316;2024-02-23T10:27:58;0.60;;;0.40;;
10659;SDS011;5378;53.206;13.316;2024-02-23T10:30:47;2.30;;;0.70;;
10659;SDS011;5378;53.206;13.316;2024-02-23T10:33:35;0.80;;;0.30;;
10659;SDS011;5378;53.206;13.316;2024-02-23T10:36:23;1.83;;;0.33;;
10659;SDS011;5378;53.206;13.316;2024-02-23T10:39:16;1.33;;;0.60;;
10659;SDS011;5378;53.206;13.316;2024-02-23T10:42:05;2.50;;;0.40;;
10659;SDS011;5378;53.206;13.316;2024-02-23T10:44:56;3.17;;;0.50;;
10659;SDS011;5378;53.206;13.316;2024-02-23T10:47:47;3.80;;;0.63;;
10659;SDS011;5378;53.206;13.316;2024-02-23T10:50:35;1.63;;;0.50;;
10659;SDS011;5378;53.206;13.316;2024-02-23T10:53:25;0.73;;;0.43;;
10659;SDS011;5378;53.206;13.316;2024-02-23T10:56:12;0.70;;;0.30;;
10659;SDS011;5378;53.206;13.316;2024-02-23T10:58:59;0.90;;;0.33;;
10659;SDS011;5378;53.206;13.316;2024-02-23T11:01:46;2.10;;;0.40;;
10659;SDS011;5378;53.206;13.316;2024-02-23T11:04:35;1.80;;;0.53;;
10659;SDS011;5378;53.206;13.316;2024-02-23T11:07:23;0.67;;;0.50;;
10659;SDS011;5378;53.206;13.316;2024-02-23T11:10:15;0.80;;;0.60;;
10659;SDS011;5378;53.206;13.316;2024-02-23T11:13:07;5.20;;;0.70;;
10659;SDS011;5378;53.206;13.316;2024-02-23T11:16:00;1.27;;;0.60;;
10659;SDS011;5378;53.206;13.316;2024-02-23T11:18:48;2.33;;;0.30;;
10659;SDS011;5378;53.206;13.316;2024-02-23T11:21:35;0.80;;;0.30;;
10659;SDS011;5378;53.206;13.316;2024-02-23T11:24:25;1.07;;;0.50;;
10659;SDS011;5378;53.206;13.316;2024-02-23T11:27:16;0.90;;;0.40;;
10659;SDS011;5378;53.206;13.316;2024-02-23T11:30:04;0.90;;;0.40;;
10659;SDS011;5378;53.206;13.316;2024-02-23T11:32:58;0.80;;;0.33;;
10659;SDS011;5378;53.206;13.316;2024-02-23T11:35:46;1.40;;;0.50;;
10659;SDS011;5378;53.206;13.316;2024-02-23T11:38:35;1.70;;;0.70;;
10659;SDS011;5378;53.206;13.316;2024-02-23T11:41:25;1.20;;;0.83;;
10659;SDS011;5378;53.206;13.316;2024-02-23T11:44:15;0.60;;;0.23;;
10659;SDS011;5378;53.206;13.316;2024-02-23T11:47:03;2.30;;;0.50;;
10659;SDS011;5378;53.206;13.316;2024-02-23T11:49:50;0.60;;;0.30;;
10659;SDS011;5378;53.206;13.316;2024-02-23T11:52:37;0.80;;;0.40;;
10659;SDS011;5378;53.206;13.316;2024-02-23T11:55:25;1.07;;;0.40;;
10659;SDS011;5378;53.206;13.316;2024-02-23T11:58:12;4.77;;;0.60;;
10659;SDS011;5378;53.206;13.316;2024-02-23T12:01:03;1.30;;;0.60;;
10659;SDS011;5378;53.206;13.316;2024-02-23T12:03:52;1.87;;;0.30;;
10659;SDS011;5378;53.206;13.316;2024-02-23T12:06:39;2.50;;;0.50;;
10659;SDS011;5378;53.206;13.316;2024-02-23T12:09:27;1.40;;;0.50;;
10659;SDS011;5378;53.206;13.316;2024-02-23T12:12:15;1.00;;;0.40;;
10659;SDS011;5378;53.206;13.316;2024-02-23T12:15:03;0.60;;;0.30;;
10659;SDS011;5378;53.206;13.316;2024-02-23T12:17:57;1.83;;;0.50;;
10659;SDS011;5378;53.206;13.316;2024-02-23T12:20:47;2.10;;;0.90;;
10659;SDS011;5378;53.206;13.316;2024-02-23T12:23:38;0.60;;;0.30;;
10659;SDS011;5378;53.206;13.316;2024-02-23T12:26:26;0.80;;;0.30;;
10659;SDS011;5378;53.206;13.316;2024-02-23T12:29:13;1.40;;;0.57;;
10659;SDS011;5378;53.206;13.316;2024-02-23T12:32:04;7.07;;;0.60;;
10659;SDS011;5378;53.206;13.316;2024-02-23T12:34:53;1.37;;;0.43;;
10659;SDS011;5378;53.206;13.316;2024-02-23T12:37:40;0.80;;;0.40;;
10659;SDS011;5378;53.206;13.316;2024-02-23T12:40:29;1.90;;;0.63;;
10659;SDS011;5378;53.206;13.316;2024-02-23T12:43:16;1.20;;;0.30;;
10659;SDS011;5378;53.206;13.316;2024-02-23T12:46:03;2.40;;;0.67;;
10659;SDS011;5378;53.206;13.316;2024-02-23T12:48:52;1.10;;;0.33;;
10659;SDS011;5378;53.206;13.316;2024-02-23T12:51:40;1.17;;;0.60;;
10659;SDS011;5378;53.206;13.316;2024-02-23T12:54:28;1.27;;;0.43;;
10659;SDS011;5378;53.206;13.316;2024-02-23T12:57:15;2.60;;;0.30;;
10659;SDS011;5378;53.206;13.316;2024-02-23T13:00:02;2.30;;;0.60;;
10659;SDS011;5378;53.206;13.316;2024-02-23T13:02:50;0.60;;;0.30;;
10659;SDS011;5378;53.206;13.316;2024-02-23T13:05:38;2.17;;;0.50;;
10659;SDS011;5378;53.206;13.316;2024-02-23T13:08:26;1.73;;;0.67;;
10659;SDS011;5378;53.206;13.316;2024-02-23T13:11:14;1.20;;;0.50;;
10659;SDS011;5378;53.206;13.316;2024-02-23T13:14:01;1.77;;;0.30;;
10659;SDS011;5378;53.206;13.316;2024-02-23T13:16:48;0.60;;;0.30;;
10659;SDS011;5378;53.206;13.316;2024-02-23T13:19:35;0.70;;;0.40;;
10659;SDS011;5378;53.206;13.316;2024-02-23T13:22:23;1.00;;;0.43;;
10659;SDS011;5378;53.206;13.316;2024-02-23T13:25:12;0.90;;;0.40;;
10659;SDS011;5378;53.206;13.316;2024-02-23T13:27:59;2.80;;;0.53;;
10659;SDS011;5378;53.206;13.316;2024-02-23T13:30:46;2.70;;;0.33;;
10659;SDS011;5378;53.206;13.316;2024-02-23T13:33:33;0.70;;;0.50;;
10659;SDS011;5378;53.206;13.316;2024-02-23T13:36:20;11.40;;;2.90;;
10659;SDS011;5378;53.206;13.316;2024-02-23T13:39:08;18.60;;;4.00;;
10659;SDS011;5378;53.206;13.316;2024-02-23T13:41:56;10.57;;;2.67;;
10659;SDS011;5378;53.206;13.316;2024-02-23T13:44:44;7.70;;;1.33;;
10659;SDS011;5378;53.206;13.316;2024-02-23T13:47:32;0.93;;;0.30;;
10659;SDS011;5378;53.206;13.316;2024-02-23T13:50:19;1.10;;;0.30;;
10659;SDS011;5378;53.206;13.316;2024-02-23T13:53:07;2.43;;;0.40;;
10659;SDS011;5378;53.206;13.316;2024-02-23T13:55:54;1.73;;;0.43;;
10659;SDS011;5378;53.206;13.316;2024-02-23T13:58:42;0.90;;;0.57;;
10659;SDS011;5378;53.206;13.316;2024-02-23T14:01:29;1.73;;;0.63;;
10659;SDS011;5378;53.206;13.316;2024-02-23T14:04:17;3.80;;;0.80;;
10659;SDS011;5378;53.206;13.316;2024-02-23T14:07:04;4.50;;;1.00;;
10659;SDS011;5378;53.206;13.316;2024-02-23T14:09:51;4.30;;;1.07;;
10659;SDS011;5378;53.206;13.316;2024-02-23T14:12:38;3.07;;;0.80;;
10659;SDS011;5378;53.206;13.316;2024-02-23T14:15:27;1.37;;;0.77;;
10659;SDS011;5378;53.206;13.316;2024-02-23T14:18:14;1.03;;;0.50;;
10659;SDS011;5378;53.206;13.316;2024-02-23T14:21:00;0.63;;;0.20;;
10659;SDS011;5378;53.206;13.316;2024-02-23T14:23:48;1.60;;;0.30;;
10659;SDS011;5378;53.206;13.316;2024-02-23T14:26:35;0.60;;;0.40;;
10659;SDS011;5378;53.206;13.316;2024-02-23T14:29:22;1.53;;;0.40;;
10659;SDS011;5378;53.206;13.316;2024-02-23T14:32:10;2.00;;;0.30;;
10659;SDS011;5378;53.206;13.316;2024-02-23T14:35:03;3.00;;;0.57;;
10659;SDS011;5378;53.206;13.316;2024-02-23T14:37:50;0.60;;;0.30;;
10659;SDS011;5378;53.206;13.316;2024-02-23T14:40:37;1.03;;;0.40;;
10659;SDS011;5378;53.206;13.316;2024-02-23T14:43:24;1.60;;;0.40;;
10659;SDS011;5378;53.206;13.316;2024-02-23T14:46:11;0.50;;;0.30;;
10659;SDS011;5378;53.206;13.316;2024-02-23T14:49:00;0.80;;;0.33;;
10659;SDS011;5378;53.206;13.316;2024-02-23T14:51:47;1.00;;;0.30;;
10659;SDS011;5378;53.206;13.316;2024-02-23T14:54:34;1.10;;;0.33;;
10659;SDS011;5378;53.206;13.316;2024-02-23T14:57:21;1.03;;;0.50;;
10659;SDS011;5378;53.206;13.316;2024-02-23T15:00:08;1.83;;;0.70;;
10659;SDS011;5378;53.206;13.316;2024-02-23T15:02:56;2.00;;;0.77;;
10659;SDS011;5378;53.206;13.316;2024-02-23T15:05:45;3.47;;;0.50;;
10659;SDS011;5378;53.206;13.316;2024-02-23T15:08:32;0.97;;;0.50;;
10659;SDS011;5378;53.206;13.316;2024-02-23T15:11:19;1.03;;;0.53;;
10659;SDS011;5378;53.206;13.316;2024-02-23T15:14:07;0.90;;;0.40;;
10659;SDS011;5378;53.206;13.316;2024-02-23T15:16:54;2.90;;;0.93;;
10659;SDS011;5378;53.206;13.316;2024-02-23T15:19:41;0.70;;;0.37;;
10659;SDS011;5378;53.206;13.316;2024-02-23T15:22:30;4.73;;;0.80;;
10659;SDS011;5378;53.206;13.316;2024-02-23T15:25:17;1.23;;;0.50;;
10659;SDS011;5378;53.206;13.316;2024-02-23T15:28:04;2.60;;;0.93;;
10659;SDS011;5378;53.206;13.316;2024-02-23T15:30:51;15.77;;;4.67;;
10659;SDS011;5378;53.206;13.316;2024-02-23T15:33:39;2.77;;;0.63;;
10659;SDS011;5378;53.206;13.316;2024-02-23T15:36:26;1.00;;;0.50;;
10659;SDS011;5378;53.206;13.316;2024-02-23T15:39:14;1.50;;;0.40;;
10659;SDS011;5378;53.206;13.316;2024-02-23T15:42:01;0.87;;;0.40;;
10659;SDS011;5378;53.206;13.316;2024-02-23T15:44:49;1.47;;;0.27;;
10659;SDS011;5378;53.206;13.316;2024-02-23T15:47:36;2.57;;;0.40;;
10659;SDS011;5378;53.206;13.316;2024-02-23T15:50:23;1.53;;;0.40;;
10659;SDS011;5378;53.206;13.316;2024-02-23T15:53:13;1.70;;;0.50;;
10659;SDS011;5378;53.206;13.316;2024-02-23T15:56:01;2.60;;;0.50;;
10659;SDS011;5378;53.206;13.316;2024-02-23T15:58:49;0.93;;;0.33;;
10659;SDS011;5378;53.206;13.316;2024-02-23T16:01:36;2.50;;;1.10;;
10659;SDS011;5378;53.206;13.316;2024-02-23T16:04:24;16.50;;;2.87;;
10659;SDS011;5378;53.206;13.316;2024-02-23T16:07:12;24.37;;;6.23;;
10659;SDS011;5378;53.206;13.316;2024-02-23T16:10:00;10.33;;;3.87;;
10659;SDS011;5378;53.206;13.316;2024-02-23T16:12:50;11.60;;;2.83;;
10659;SDS011;5378;53.206;13.316;2024-02-23T16:15:37;7.03;;;1.67;;
10659;SDS011;5378;53.206;13.316;2024-02-23T16:18:24;2.43;;;1.00;;
10659;SDS011;5378;53.206;13.316;2024-02-23T16:21:11;5.77;;;0.90;;
10659;SDS011;5378;53.206;13.316;2024-02-23T16:24:01;2.03;;;0.87;;
10659;SDS011;5378;53.206;13.316;2024-02-23T16:26:49;4.00;;;1.50;;
10659;SDS011;5378;53.206;13.316;2024-02-23T16:29:38;2.17;;;0.80;;
10659;SDS011;5378;53.206;13.316;2024-02-23T16:32:25;4.27;;;0.70;;
10659;SDS011;5378;53.206;13.316;2024-02-23T16:35:12;1.40;;;0.60;;
10659;SDS011;5378;53.206;13.316;2024-02-23T16:38:01;1.73;;;0.97;;
10659;SDS011;5378;53.206;13.316;2024-02-23T16:40:48;6.30;;;1.73;;
10659;SDS011;5378;53.206;13.316;2024-02-23T16:43:35;7.83;;;1.20;;
10659;SDS011;5378;53.206;13.316;2024-02-23T16:46:24;2.23;;;0.73;;
10659;SDS011;5378;53.206;13.316;2024-02-23T16:49:11;8.80;;;0.70;;
10659;SDS011;5378;53.206;13.316;2024-02-23T16:51:58;2.70;;;1.23;;